Time;durP1;ratioP1;P1;durP2;ratioP2;P2;SDS_P1;SDS_P2;PMS_P1;PMS_P2;Temp;Humidity;BMP_temperature;BMP_pressure;BME280_temperature;BME280_humidity;BME280_pressure;Samples;Min_cycle;Max_cycle;Signal;HPM_P1;HPM_P2
2022/04/26 03:37:29;;;;;;;21.80;13.10;;;10.50;99.90;;;;;;4931963;29;20058;-67
2022/04/26 03:39:55;;;;;;;17.63;11.93;;;10.50;99.90;;;;;;4931762;29;20028;-68
2022/04/26 03:42:21;;;;;;;20.83;12.50;;;10.50;99.90;;;;;;4931763;29;20405;-68
2022/04/26 03:44:47;;;;;;;20.17;11.43;;;10.40;99.90;;;;;;4931309;29;20040;-68
2022/04/26 03:47:13;;;;;;;19.20;9.90;;;10.40;99.90;;;;;;4931862;29;20032;-68
2022/04/26 03:49:39;;;;;;;17.07;10.63;;;10.30;99.90;;;;;;4934623;29;20203;-67
2022/04/26 03:52:05;;;;;;;18.03;11.07;;;10.40;99.90;;;;;;4936899;29;20028;-67
2022/04/26 03:54:32;;;;;;;17.87;10.10;;;10.30;99.90;;;;;;4931655;29;20400;-68
2022/04/26 03:56:58;;;;;;;16.70;10.57;;;10.30;99.90;;;;;;4932119;29;20115;-67
2022/04/26 03:59:24;;;;;;;13.97;9.47;;;10.40;99.90;;;;;;4935521;29;20083;-67
2022/04/26 04:01:50;;;;;;;17.33;9.60;;;10.30;99.90;;;;;;4934097;29;20040;-67
2022/04/26 04:04:16;;;;;;;16.47;9.30;;;10.30;99.90;;;;;;4935418;29;20058;-69
2022/04/26 04:06:42;;;;;;;15.03;9.90;;;10.30;99.90;;;;;;4917737;29;20042;-68
2022/04/26 04:09:08;;;;;;;15.77;9.30;;;10.30;99.90;;;;;;4935392;29;20544;-68
2022/04/26 04:11:34;;;;;;;13.53;9.17;;;10.20;99.90;;;;;;4934912;29;20048;-68
2022/04/26 04:14:00;;;;;;;16.50;8.80;;;10.30;99.90;;;;;;4933984;29;20083;-67
2022/04/26 04:16:28;;;;;;;15.37;9.33;;;10.20;99.90;;;;;;4934372;29;20031;-67
2022/04/26 04:21:38;;;;;;;14.03;8.27;;;10.20;99.90;;;;;;4934481;29;20027;-68
2022/04/26 04:24:05;;;;;;;13.93;9.13;;;10.20;99.90;;;;;;4934952;29;20437;-68
2022/04/26 04:26:31;;;;;;;12.73;8.27;;;10.10;99.90;;;;;;4934356;29;20032;-67
2022/04/26 04:28:57;;;;;;;13.37;8.40;;;10.10;99.90;;;;;;4942186;29;20090;-68
2022/04/26 04:31:23;;;;;;;18.27;9.47;;;10.10;99.90;;;;;;4949318;29;20035;-68
2022/04/26 04:33:49;;;;;;;15.20;8.80;;;10.10;99.90;;;;;;4953421;29;20081;-67
2022/04/26 04:36:15;;;;;;;15.23;9.27;;;10.20;99.90;;;;;;4952952;29;20495;-69
2022/04/26 04:38:41;;;;;;;14.67;8.57;;;10.10;99.90;;;;;;4953414;29;20488;-68
2022/04/26 04:41:08;;;;;;;15.17;8.50;;;10.10;99.90;;;;;;4953475;29;20031;-69
2022/04/26 04:43:34;;;;;;;14.43;8.00;;;10.00;99.90;;;;;;4953663;29;20027;-72
2022/04/26 04:46:01;;;;;;;12.83;7.40;;;10.00;99.90;;;;;;4936064;29;20051;-71
2022/04/26 04:48:28;;;;;;;15.63;8.00;;;10.00;99.90;;;;;;4953833;29;20415;-69
2022/04/26 04:50:54;;;;;;;12.80;7.90;;;10.00;99.90;;;;;;4935975;29;20046;-70
2022/04/26 04:53:21;;;;;;;16.23;7.83;;;10.00;99.90;;;;;;4953188;29;20027;-71
2022/04/26 04:55:47;;;;;;;14.43;8.33;;;10.00;99.90;;;;;;4951879;29;20114;-70
2022/04/26 04:58:13;;;;;;;13.83;8.10;;;10.10;99.90;;;;;;4952817;29;20437;-72
2022/04/26 05:00:39;;;;;;;9.97;6.73;;;10.10;99.90;;;;;;4952253;29;20031;-72
2022/04/26 05:03:05;;;;;;;16.33;8.20;;;10.00;99.90;;;;;;4935439;29;20023;-71
2022/04/26 05:05:31;;;;;;;12.87;8.27;;;10.00;99.90;;;;;;4952558;29;20459;-72
2022/04/26 05:07:58;;;;;;;14.87;8.03;;;9.90;99.90;;;;;;4952405;28;20536;-71
2022/04/26 05:10:25;;;;;;;17.90;9.70;;;9.90;99.90;;;;;;4951840;29;20027;-72
2022/04/26 05:12:53;;;;;;;13.90;8.75;;;9.90;99.90;;;;;;4952577;29;20027;-71
2022/04/26 05:15:19;;;;;;;18.20;8.70;;;9.90;99.90;;;;;;4952225;29;20110;-71
2022/04/26 05:17:45;;;;;;;14.60;8.57;;;9.80;99.90;;;;;;4952962;29;20093;-71
2022/04/26 05:20:11;;;;;;;15.03;8.20;;;9.90;99.90;;;;;;4952538;29;20031;-72
2022/04/26 05:25:22;;;;;;;12.90;7.90;;;9.80;99.90;;;;;;4952928;29;20031;-72
2022/04/26 05:27:48;;;;;;;12.93;8.27;;;9.80;99.90;;;;;;4952892;29;20424;-71
2022/04/26 05:30:14;;;;;;;15.80;8.60;;;9.80;99.90;;;;;;4952049;29;20031;-71
2022/04/26 05:35:14;;;;;;;13.50;8.03;;;9.90;99.90;;;;;;4932033;29;20090;-71
2022/04/26 05:37:41;;;;;;;12.13;8.33;;;9.80;99.90;;;;;;4933579;29;20429;-71
2022/04/26 05:40:07;;;;;;;15.23;8.87;;;9.80;99.90;;;;;;4933751;29;20279;-71
2022/04/26 05:42:37;;;;;;;14.53;8.53;;;9.80;99.90;;;;;;4933736;29;20115;-71
2022/04/26 05:45:03;;;;;;;15.03;9.60;;;9.80;99.90;;;;;;4933599;29;20032;-71
2022/04/26 05:47:29;;;;;;;18.83;9.03;;;9.80;99.90;;;;;;4933480;29;20046;-71
2022/04/26 05:49:56;;;;;;;18.97;9.70;;;9.80;99.90;;;;;;4933451;29;20031;-71
2022/04/26 05:52:24;;;;;;;15.57;8.70;;;9.80;99.90;;;;;;4933649;29;20035;-71
2022/04/26 05:54:51;;;;;;;18.60;9.97;;;9.80;99.90;;;;;;4931545;29;20438;-72
2022/04/26 05:57:18;;;;;;;16.90;9.40;;;9.80;99.90;;;;;;4933575;29;20031;-72
2022/04/26 06:03:38;;;;;;;14.23;8.83;;;9.90;99.90;;;;;;4950881;28;20095;-67
2022/04/26 06:06:06;;;;;;;16.90;10.00;;;9.90;99.90;;;;;;4932656;29;20032;-71
2022/04/26 06:08:32;;;;;;;14.10;8.40;;;10.00;99.90;;;;;;4934106;29;20031;-71
2022/04/26 06:10:58;;;;;;;15.23;8.60;;;10.00;99.90;;;;;;4934069;29;20039;-71
2022/04/26 06:13:24;;;;;;;13.63;9.20;;;10.00;99.90;;;;;;4932483;29;20095;-71
2022/04/26 06:15:50;;;;;;;14.37;8.97;;;10.10;99.90;;;;;;4932795;29;20389;-70
2022/04/26 06:18:16;;;;;;;17.47;9.60;;;10.10;99.90;;;;;;4931972;29;20058;-71
2022/04/26 06:20:41;;;;;;;16.50;9.27;;;10.10;99.90;;;;;;4931329;29;20118;-71
2022/04/26 06:23:07;;;;;;;16.00;9.33;;;10.10;99.90;;;;;;4932902;29;20024;-70
2022/04/26 06:25:36;;;;;;;21.53;9.67;;;10.20;99.90;;;;;;4932519;29;20106;-70
2022/04/26 06:28:03;;;;;;;13.32;9.30;;;10.10;99.90;;;;;;4932552;29;20034;-71
2022/04/26 06:30:29;;;;;;;19.50;10.73;;;10.10;99.90;;;;;;4931972;29;20035;-70
2022/04/26 06:32:55;;;;;;;20.00;10.47;;;10.20;99.90;;;;;;4932432;29;20118;-70
2022/04/26 06:35:21;;;;;;;13.97;9.87;;;10.20;99.90;;;;;;4932373;29;20035;-70
2022/04/26 06:37:47;;;;;;;18.87;11.20;;;10.20;99.90;;;;;;4932296;29;20499;-70
2022/04/26 06:40:13;;;;;;;150.50;21.93;;;10.40;99.90;;;;;;4932110;29;20032;-71
2022/04/26 06:42:40;;;;;;;59.23;13.17;;;10.40;99.90;;;;;;4932459;29;20032;-72
2022/04/26 06:45:06;;;;;;;60.03;14.17;;;10.50;99.90;;;;;;4931999;29;20409;-72
2022/04/26 06:47:32;;;;;;;51.43;13.53;;;10.50;99.90;;;;;;4932407;29;20082;-71
2022/04/26 06:49:58;;;;;;;100.07;17.10;;;10.40;99.90;;;;;;4932021;29;20038;-72
2022/04/26 06:52:24;;;;;;;27.40;10.00;;;10.30;99.90;;;;;;4932925;29;20039;-72
2022/04/26 06:54:50;;;;;;;18.03;9.57;;;10.40;99.90;;;;;;4930866;29;20221;-71
2022/04/26 06:57:16;;;;;;;15.67;10.27;;;10.40;99.90;;;;;;4915049;29;20202;-72
2022/04/26 06:59:42;;;;;;;15.37;10.33;;;10.40;99.90;;;;;;4932323;29;20024;-72
2022/04/26 07:02:08;;;;;;;16.13;9.70;;;10.50;99.90;;;;;;4931974;29;20031;-71
2022/04/26 07:04:33;;;;;;;17.30;10.20;;;10.50;99.90;;;;;;4931313;29;20024;-72
2022/04/26 07:06:59;;;;;;;23.10;11.70;;;10.50;99.90;;;;;;4931167;29;20047;-71
2022/04/26 07:09:25;;;;;;;19.23;11.07;;;10.50;99.90;;;;;;4932880;29;20027;-73
2022/04/26 07:11:52;;;;;;;19.03;9.93;;;10.60;99.90;;;;;;4932294;29;20028;-72
2022/04/26 07:14:18;;;;;;;17.43;9.73;;;10.50;99.90;;;;;;4918308;29;20039;-72
2022/04/26 07:16:49;;;;;;;17.90;9.80;;;10.60;99.90;;;;;;4912544;29;20028;-71
2022/04/26 07:19:17;;;;;;;17.30;9.90;;;10.50;99.90;;;;;;4913327;29;20029;-70
2022/04/26 07:21:46;;;;;;;19.87;10.07;;;10.60;99.90;;;;;;4912059;29;20438;-72
2022/04/26 07:24:12;;;;;;;18.37;9.97;;;10.60;99.90;;;;;;4913524;29;20028;-70
2022/04/26 07:26:38;;;;;;;20.33;10.50;;;10.60;99.90;;;;;;4912718;29;20067;-71
2022/04/26 07:29:05;;;;;;;17.13;11.00;;;10.70;99.90;;;;;;4913350;29;20139;-71
2022/04/26 07:31:31;;;;;;;18.47;10.57;;;10.70;99.90;;;;;;4911546;29;20096;-70
2022/04/26 07:36:41;;;;;;;19.30;11.37;;;10.70;99.90;;;;;;4915814;29;20442;-70
2022/04/26 07:39:07;;;;;;;17.37;12.33;;;10.80;99.90;;;;;;4916520;29;20028;-70
2022/04/26 07:41:33;;;;;;;26.80;13.77;;;10.80;99.90;;;;;;4916056;29;20370;-70
2022/04/26 07:43:59;;;;;;;21.80;13.03;;;10.80;99.90;;;;;;4916018;29;20042;-72
2022/04/26 07:46:25;;;;;;;21.70;13.67;;;10.80;99.90;;;;;;4913959;29;20043;-73
2022/04/26 07:48:52;;;;;;;21.67;13.10;;;10.80;99.90;;;;;;4915055;29;20032;-72
2022/04/26 07:51:18;;;;;;;18.53;12.40;;;10.80;99.90;;;;;;4916182;29;20036;-72
2022/04/26 07:53:45;;;;;;;22.37;13.50;;;10.80;99.90;;;;;;4916178;29;20035;-71
2022/04/26 07:56:11;;;;;;;30.33;13.00;;;10.90;99.90;;;;;;4913335;29;20054;-72
2022/04/26 07:58:37;;;;;;;22.70;12.47;;;10.80;99.90;;;;;;4913028;29;20115;-71
2022/04/26 08:01:04;;;;;;;21.30;12.37;;;10.90;99.90;;;;;;4916045;29;20032;-69
2022/04/26 08:03:32;;;;;;;24.37;13.40;;;10.80;99.90;;;;;;4914075;29;20051;-73
2022/04/26 08:05:58;;;;;;;24.00;13.47;;;10.80;99.90;;;;;;4913268;29;20040;-69
2022/04/26 08:08:24;;;;;;;23.87;12.90;;;10.80;99.90;;;;;;4913827;29;20036;-70
2022/04/26 08:10:50;;;;;;;21.57;13.80;;;10.90;99.90;;;;;;4914688;29;20032;-69
2022/04/26 08:13:16;;;;;;;24.10;14.60;;;10.90;99.90;;;;;;4915248;29;20116;-69
2022/04/26 08:15:43;;;;;;;20.80;14.13;;;10.90;99.90;;;;;;4914898;29;20031;-70
2022/04/26 08:18:10;;;;;;;21.47;14.67;;;10.90;99.90;;;;;;4915265;29;20043;-69
2022/04/26 08:20:37;;;;;;;24.23;15.60;;;10.90;99.90;;;;;;4915479;29;20032;-70
2022/04/26 08:23:07;;;;;;;26.07;16.10;;;10.90;99.90;;;;;;4915906;29;20036;-69
2022/04/26 08:28:18;;;;;;;27.53;17.23;;;11.00;99.90;;;;;;4915489;29;19930;-69
2022/04/26 08:30:44;;;;;;;30.17;17.03;;;11.00;99.90;;;;;;4913552;29;20028;-69
2022/04/26 08:33:10;;;;;;;25.57;16.07;;;11.10;99.90;;;;;;4915285;29;20637;-69
2022/04/26 08:35:36;;;;;;;28.50;18.20;;;11.10;99.90;;;;;;4915169;29;20024;-69
2022/04/26 08:38:02;;;;;;;31.07;19.70;;;11.20;99.90;;;;;;4915105;29;20043;-69
2022/04/26 08:40:28;;;;;;;26.27;18.30;;;11.30;99.90;;;;;;4914953;29;20028;-70
2022/04/26 08:42:54;;;;;;;29.60;20.97;;;11.40;99.90;;;;;;4914826;29;20432;-70
2022/04/26 08:45:21;;;;;;;29.10;20.50;;;11.40;99.90;;;;;;4914583;29;20032;-70
2022/04/26 08:53:20;;;;;;;31.80;21.70;;;11.40;99.90;;;;;;4915074;29;20066;-70
2022/04/26 08:55:51;;;;;;;30.83;22.23;;;11.40;99.90;;;;;;4914729;29;20057;-70
2022/04/26 08:58:21;;;;;;;31.37;22.67;;;11.50;99.90;;;;;;4914567;29;20040;-69
2022/04/26 09:01:06;;;;;;;31.07;23.80;;;11.50;99.90;;;;;;4914170;29;20098;-69
2022/04/26 09:03:38;;;;;;;32.40;23.53;;;11.50;99.90;;;;;;4913195;29;20047;-69
2022/04/26 09:06:15;;;;;;;32.50;23.23;;;11.50;99.90;;;;;;4914256;29;20036;-70
2022/04/26 09:08:47;;;;;;;32.67;23.50;;;11.50;99.90;;;;;;4914574;29;20033;-70
2022/04/26 09:11:20;;;;;;;29.83;22.63;;;11.60;99.90;;;;;;4914418;29;20040;-69
2022/04/26 09:13:46;;;;;;;34.03;24.60;;;11.60;99.90;;;;;;4914364;29;20055;-70
2022/04/26 09:16:18;;;;;;;32.67;23.40;;;11.70;99.90;;;;;;4913721;29;20032;-69
2022/04/26 09:18:59;;;;;;;34.43;23.70;;;11.80;99.90;;;;;;4914159;29;20074;-69
2022/04/26 09:21:27;;;;;;;31.87;23.53;;;11.80;99.90;;;;;;4912652;29;20036;-70
2022/04/26 09:23:57;;;;;;;31.27;22.80;;;11.80;99.90;;;;;;4914480;29;20481;-70
2022/04/26 09:26:23;;;;;;;34.13;23.47;;;11.80;99.90;;;;;;4913912;29;20477;-69
2022/04/26 09:28:51;;;;;;;31.37;22.57;;;11.90;99.90;;;;;;4914187;29;20059;-69
2022/04/26 09:31:20;;;;;;;34.03;22.53;;;11.90;99.90;;;;;;4913880;29;20421;-69
2022/04/26 09:33:47;;;;;;;34.00;22.77;;;11.90;99.90;;;;;;4912970;29;20036;-69
2022/04/26 09:36:15;;;;;;;33.50;22.57;;;11.90;99.90;;;;;;4912753;29;20516;-69
2022/04/26 09:38:58;;;;;;;35.07;22.70;;;11.90;99.90;;;;;;4914426;29;20032;-70
2022/04/26 09:41:26;;;;;;;26.50;20.33;;;11.90;99.90;;;;;;4914002;29;20083;-70
2022/04/26 09:44:09;;;;;;;34.20;21.17;;;11.90;99.90;;;;;;4914514;29;20043;-69
2022/04/26 09:46:54;;;;;;;28.20;19.40;;;12.10;99.90;;;;;;4911914;29;20032;-69
2022/04/26 09:49:22;;;;;;;27.63;19.30;;;12.10;99.90;;;;;;4914107;29;20028;-70
2022/04/26 09:51:54;;;;;;;29.23;18.43;;;12.20;99.90;;;;;;4913832;29;20043;-69
2022/04/26 09:54:21;;;;;;;27.70;18.63;;;12.30;99.90;;;;;;4913481;29;20032;-69
2022/04/26 09:56:48;;;;;;;23.93;17.37;;;12.30;99.90;;;;;;4911890;29;20043;-69
2022/04/26 09:59:37;;;;;;;25.83;17.70;;;12.30;99.90;;;;;;4913923;29;20055;-70
2022/04/26 10:02:07;;;;;;;24.15;16.90;;;12.40;99.90;;;;;;4928905;29;20070;-69
2022/04/26 10:04:36;;;;;;;27.08;17.90;;;12.50;99.90;;;;;;4932484;29;20058;-70
2022/04/26 10:07:12;;;;;;;22.83;15.85;;;12.50;99.90;;;;;;4932281;29;20047;-72
2022/04/26 10:09:39;;;;;;;22.58;16.35;;;12.50;99.90;;;;;;4932933;29;20028;-71
2022/04/26 10:12:05;;;;;;;25.73;16.90;;;12.60;99.90;;;;;;4931032;29;20086;-69
2022/04/26 10:14:33;;;;;;;28.38;17.00;;;12.60;99.90;;;;;;4932982;29;20111;-70
2022/04/26 10:16:59;;;;;;;24.30;16.15;;;12.60;99.90;;;;;;4934375;29;20044;-70
2022/04/26 10:19:39;;;;;;;27.27;16.95;;;12.60;99.90;;;;;;4933129;29;20049;-69
2022/04/26 10:22:08;;;;;;;23.55;15.98;;;12.60;99.90;;;;;;4930639;29;20043;-69
2022/04/26 10:24:34;;;;;;;21.45;15.60;;;12.70;99.90;;;;;;4930907;29;20035;-71
2022/04/26 10:27:22;;;;;;;25.45;17.95;;;12.70;99.90;;;;;;4932446;29;20139;-73
2022/04/26 10:29:49;;;;;;;25.55;17.33;;;12.80;99.90;;;;;;4931060;29;20036;-72
2022/04/26 10:32:38;;;;;;;27.90;17.65;;;12.80;99.90;;;;;;4932530;29;20028;-73
2022/04/26 10:35:26;;;;;;;25.05;17.80;;;12.80;99.90;;;;;;4932118;29;20059;-74
2022/04/26 10:38:07;;;;;;;22.67;17.95;;;12.70;99.90;;;;;;4931076;29;20429;-74
2022/04/26 10:41:01;;;;;;;27.75;17.98;;;12.70;99.90;;;;;;4932345;29;20038;-74
2022/04/26 10:43:27;;;;;;;22.38;16.23;;;12.70;99.90;;;;;;4932175;29;20044;-73
2022/04/26 10:46:29;;;;;;;20.60;14.77;;;12.70;99.90;;;;;;4931848;29;20040;-73
2022/04/26 10:48:57;;;;;;;22.52;15.35;;;12.70;99.90;;;;;;4929708;29;20036;-74
2022/04/26 10:51:35;;;;;;;24.60;15.45;;;12.70;99.90;;;;;;4931279;29;20493;-74
2022/04/26 10:54:02;;;;;;;24.70;15.38;;;12.70;99.90;;;;;;4932351;29;20080;-71
2022/04/26 10:56:32;;;;;;;20.20;14.85;;;12.70;99.90;;;;;;4932220;29;20293;-72
2022/04/26 10:58:58;;;;;;;23.63;16.15;;;12.80;99.90;;;;;;4930822;29;20466;-71
2022/04/26 11:01:27;;;;;;;24.30;14.70;;;13.00;99.90;;;;;;4930594;29;20039;-71
2022/04/26 11:03:58;;;;;;;18.42;13.57;;;13.10;99.90;;;;;;4932767;29;20358;-71
2022/04/26 11:06:33;;;;;;;18.40;13.55;;;13.20;99.90;;;;;;4933341;29;20358;-71
2022/04/26 11:09:14;;;;;;;19.95;14.43;;;13.10;99.90;;;;;;4936173;29;20478;-72
2022/04/26 11:11:51;;;;;;;19.95;13.88;;;13.20;99.90;;;;;;4935784;29;20119;-72
2022/04/26 11:14:20;;;;;;;19.58;14.65;;;13.30;99.90;;;;;;4936296;29;20090;-73
2022/04/26 11:17:04;;;;;;;22.07;14.70;;;13.30;99.90;;;;;;4935555;29;20028;-74
2022/04/26 11:19:46;;;;;;;19.88;15.32;;;13.20;99.90;;;;;;4934996;29;20362;-75
2022/04/26 11:22:15;;;;;;;23.60;15.45;;;13.10;99.90;;;;;;4936132;29;20223;-73
2022/04/26 11:30:45;;;;;;;20.92;15.00;;;13.00;99.90;;;;;;4935319;29;20039;-74
2022/04/26 11:33:19;;;;;;;24.27;17.30;;;13.10;99.90;;;;;;4962826;22;20024;-84
2022/04/26 11:35:50;;;;;;;20.77;15.02;;;13.10;99.90;;;;;;4951023;28;20035;-80
2022/04/26 11:38:16;;;;;;;20.13;13.90;;;13.00;99.90;;;;;;4973189;28;20034;-79
2022/04/26 11:40:54;;;;;;;21.90;15.25;;;13.00;99.90;;;;;;4973579;28;20287;-78
2022/04/26 11:43:26;;;;;;;20.55;13.82;;;13.00;99.90;;;;;;4973578;28;20062;-79
2022/04/26 11:45:55;;;;;;;21.60;14.32;;;13.00;99.90;;;;;;4972286;28;20043;-79
2022/04/26 11:48:24;;;;;;;21.38;13.93;;;13.00;99.90;;;;;;4973634;28;20114;-79
2022/04/26 11:50:50;;;;;;;;;;;13.10;99.90;;;;;;4973742;28;20035;-79
2022/04/26 11:53:19;;;;;;;20.08;14.75;;;13.10;99.90;;;;;;4955540;28;19910;-79
2022/04/26 11:55:56;;;;;;;21.00;13.45;;;13.00;99.90;;;;;;4972940;28;20082;-80
2022/04/26 11:58:28;;;;;;;21.15;13.02;;;13.00;99.90;;;;;;4972800;28;20066;-79
2022/04/26 12:01:11;;;;;;;19.67;14.30;;;13.00;99.90;;;;;;4954608;28;20039;-80
2022/04/26 12:03:38;;;;;;;18.05;13.30;;;13.10;99.90;;;;;;4972941;28;20097;-79
2022/04/26 12:06:07;;;;;;;21.73;14.80;;;13.10;99.90;;;;;;4972631;28;20050;-79
2022/04/26 12:08:55;;;;;;;21.02;13.45;;;13.10;99.90;;;;;;4955527;28;20399;-79
2022/04/26 12:11:26;;;;;;;20.45;13.70;;;13.10;99.90;;;;;;4972057;28;20039;-79
2022/04/26 12:14:11;;;;;;;20.08;14.25;;;13.20;99.90;;;;;;4972670;28;20456;-79
2022/04/26 12:16:55;;;;;;;21.48;13.75;;;13.30;99.90;;;;;;4971449;28;20035;-80
2022/04/26 12:19:37;;;;;;;18.20;12.60;;;13.30;99.90;;;;;;4972377;28;20069;-80
2022/04/26 12:22:04;;;;;;;19.38;12.90;;;13.30;99.90;;;;;;4972259;28;20134;-80
2022/04/26 12:24:32;;;;;;;19.60;13.25;;;13.30;99.90;;;;;;4972874;28;20034;-79
2022/04/26 12:27:03;;;;;;;23.05;12.30;;;13.30;99.90;;;;;;4972702;28;20407;-79
2022/04/26 12:29:44;;;;;;;15.88;12.48;;;13.30;99.90;;;;;;4972795;28;20027;-80
2022/04/26 12:32:14;;;;;;;17.10;12.45;;;13.20;99.90;;;;;;4971354;28;20043;-80
2022/04/26 12:34:57;;;;;;;17.00;12.25;;;13.30;99.90;;;;;;4972757;28;20211;-80
2022/04/26 12:37:30;;;;;;;20.92;13.48;;;13.20;99.90;;;;;;4972447;28;20030;-80
2022/04/26 12:40:05;;;;;;;23.33;13.77;;;13.20;99.90;;;;;;4972545;28;20031;-80
2022/04/26 12:42:41;;;;;;;17.15;11.77;;;13.10;99.90;;;;;;4972088;28;20041;-80
2022/04/26 12:45:21;;;;;;;17.00;11.68;;;13.20;99.90;;;;;;4971960;28;20034;-81
2022/04/26 12:50:52;;;;;;;16.45;11.45;;;13.20;99.90;;;;;;4965533;28;20038;-81
2022/04/26 12:53:28;;;;;;;15.13;11.00;;;13.20;99.90;;;;;;4954479;28;20177;-81
2022/04/26 12:56:04;;;;;;;21.05;11.80;;;13.20;99.90;;;;;;4972063;28;20035;-80
2022/04/26 12:58:41;;;;;;;18.30;12.88;;;13.40;99.90;;;;;;4972504;28;20109;-80
2022/04/26 13:01:08;;;;;;;16.60;12.65;;;13.40;99.90;;;;;;4954029;28;20035;-80
2022/04/26 13:03:35;;;;;;;16.60;11.95;;;13.40;99.90;;;;;;4954892;28;20034;-80
2022/04/26 13:06:12;;;;;;;17.15;11.90;;;13.40;99.90;;;;;;4971822;28;20046;-80
2022/04/26 13:08:40;;;;;;;17.95;11.07;;;13.40;99.90;;;;;;4972169;28;20079;-80
2022/04/26 13:11:06;;;;;;;15.43;10.88;;;13.50;99.90;;;;;;4971708;28;20038;-80
2022/04/26 13:13:34;;;;;;;16.23;10.40;;;13.50;99.90;;;;;;4971521;28;20034;-80
2022/04/26 13:16:00;;;;;;;19.42;10.73;;;13.50;99.90;;;;;;4970907;28;20281;-80
2022/04/26 13:18:27;;;;;;;16.58;11.30;;;13.50;99.90;;;;;;4972023;28;20027;-80
2022/04/26 13:20:54;;;;;;;16.65;10.32;;;13.50;99.90;;;;;;4971839;28;20030;-80
2022/04/26 13:23:21;;;;;;;16.27;10.32;;;13.50;99.90;;;;;;4954080;28;20030;-80
2022/04/26 13:25:47;;;;;;;17.02;10.88;;;13.50;99.90;;;;;;4971248;28;20102;-80
2022/04/26 13:28:13;;;;;;;13.90;9.35;;;13.50;99.90;;;;;;4971540;28;20803;-80
2022/04/26 13:30:39;;;;;;;15.30;9.23;;;13.50;99.90;;;;;;4970116;28;20518;-80
2022/04/26 13:33:05;;;;;;;15.90;10.25;;;13.70;99.90;;;;;;4970944;28;20055;-80
2022/04/26 13:35:31;;;;;;;14.32;9.88;;;13.80;99.90;;;;;;4971532;28;20073;-80
2022/04/26 13:37:58;;;;;;;14.73;10.38;;;13.90;99.90;;;;;;4969685;28;20050;-80
2022/04/26 13:40:24;;;;;;;14.63;9.80;;;13.90;99.90;;;;;;4971273;28;20082;-80
2022/04/26 13:42:51;;;;;;;15.70;9.27;;;14.00;99.90;;;;;;4971019;28;20510;-80
2022/04/26 13:45:17;;;;;;;15.57;10.00;;;14.20;99.90;;;;;;4971264;28;20031;-80
2022/04/26 13:47:45;;;;;;;15.50;9.70;;;14.30;99.90;;;;;;4970007;28;20422;-80
2022/04/26 13:50:12;;;;;;;13.38;8.98;;;14.30;98.60;;;;;;4953904;28;20050;-80
2022/04/26 13:52:41;;;;;;;15.30;8.77;;;14.30;98.50;;;;;;4970510;28;20107;-80
2022/04/26 13:55:07;;;;;;;14.60;8.50;;;14.20;99.20;;;;;;4970558;28;20035;-80
2022/04/26 13:57:33;;;;;;;18.42;10.30;;;14.10;99.20;;;;;;4953490;28;20057;-80
2022/04/26 13:59:59;;;;;;;12.52;8.45;;;14.00;99.90;;;;;;4953406;28;20035;-80
2022/04/26 14:02:24;;;;;;;12.23;8.50;;;14.00;99.90;;;;;;4969702;28;20035;-80
2022/04/26 14:04:50;;;;;;;16.25;8.68;;;13.90;99.90;;;;;;4970592;28;20111;-80
2022/04/26 14:07:17;;;;;;;15.18;8.80;;;13.90;99.90;;;;;;4970380;28;20057;-80
2022/04/26 14:09:43;;;;;;;14.88;8.02;;;13.80;99.90;;;;;;4970630;28;20054;-80
2022/04/26 14:12:11;;;;;;;13.93;8.18;;;13.80;98.80;;;;;;4970261;28;20035;-80
2022/04/26 14:22:52;;;;;;;9.63;6.75;;;13.90;98.50;;;;;;4953042;28;20035;-80
2022/04/26 14:25:18;;;;;;;14.88;7.75;;;14.20;97.60;;;;;;4971231;28;20487;-80
2022/04/26 14:27:47;;;;;;;13.05;7.57;;;14.60;96.90;;;;;;4953681;28;20109;-83
2022/04/26 14:30:14;;;;;;;11.32;6.97;;;14.80;96.10;;;;;;4954086;28;20524;-83
2022/04/26 14:32:40;;;;;;;10.90;7.53;;;14.90;96.00;;;;;;4969943;28;20050;-83
2022/04/26 14:35:06;;;;;;;10.35;6.82;;;15.10;95.50;;;;;;4953084;28;20041;-85
2022/04/26 14:37:35;;;;;;;10.32;6.68;;;15.30;95.00;;;;;;4970325;28;20079;-85
2022/04/26 14:40:00;;;;;;;10.15;6.85;;;15.60;94.50;;;;;;4969348;28;20065;-84
2022/04/26 14:42:28;;;;;;;10.02;6.68;;;15.60;94.30;;;;;;4970441;28;20488;-85
2022/04/26 14:44:54;;;;;;;13.07;7.00;;;15.50;94.40;;;;;;4970868;28;20081;-85
2022/04/26 14:47:20;;;;;;;10.43;6.85;;;15.50;94.00;;;;;;4969888;28;20030;-85
2022/04/26 14:49:46;;;;;;;10.07;6.45;;;15.40;93.80;;;;;;4970953;28;20455;-85
2022/04/26 14:52:21;;;;;;;11.45;6.93;;;15.30;94.30;;;;;;4970628;28;20134;-85
2022/04/26 14:54:47;;;;;;;14.27;7.75;;;15.20;93.80;;;;;;4970680;28;20034;-85
2022/04/26 14:57:17;;;;;;;10.35;6.15;;;15.40;93.80;;;;;;4971030;28;20031;-85
2022/04/26 14:59:46;;;;;;;11.10;6.72;;;15.60;93.80;;;;;;4953361;28;20034;-85
2022/04/26 15:02:14;;;;;;;11.00;5.95;;;15.60;93.70;;;;;;4969775;28;20515;-85
2022/04/26 15:04:40;;;;;;;9.88;6.43;;;15.70;92.60;;;;;;4953307;28;20037;-85
2022/04/26 15:07:06;;;;;;;10.75;6.82;;;15.60;92.80;;;;;;4970649;28;20039;-85
2022/04/26 15:09:43;;;;;;;8.00;5.85;;;15.50;92.80;;;;;;4970745;28;20041;-85
2022/04/26 15:17:48;;;;;;;10.25;6.47;;;15.50;92.40;;;;;;4969299;28;20027;-78
2022/04/26 15:20:14;;;;;;;10.10;5.63;;;15.40;92.90;;;;;;4969023;28;20027;-84
2022/04/26 15:22:40;;;;;;;10.68;5.88;;;15.40;92.90;;;;;;4952516;28;20101;-84
2022/04/26 15:25:07;;;;;;;9.93;5.93;;;15.30;92.40;;;;;;4970271;28;20062;-84
2022/04/26 15:27:34;;;;;;;10.27;5.53;;;15.20;91.90;;;;;;4952850;28;20043;-84
2022/04/26 15:30:02;;;;;;;10.32;5.82;;;15.10;92.30;;;;;;4970264;28;20222;-84
2022/04/26 15:32:28;;;;;;;8.73;5.30;;;15.10;92.00;;;;;;4935884;28;20035;-84
2022/04/26 15:34:53;;;;;;;10.10;5.80;;;15.10;92.20;;;;;;4970633;28;20027;-84
2022/04/26 15:37:19;;;;;;;10.00;5.72;;;15.10;92.40;;;;;;4952259;28;20034;-84
2022/04/26 15:39:47;;;;;;;9.48;5.10;;;15.00;92.40;;;;;;4952863;28;20030;-84
2022/04/26 15:42:14;;;;;;;9.45;6.20;;;15.00;92.70;;;;;;4936826;28;20041;-84
2022/04/26 15:44:40;;;;;;;14.30;6.30;;;15.00;92.20;;;;;;4952793;28;20050;-84
2022/04/26 15:47:06;;;;;;;9.40;5.60;;;15.00;92.20;;;;;;4969201;28;20031;-84
2022/04/26 15:49:32;;;;;;;8.35;6.07;;;15.00;92.20;;;;;;4952658;28;20509;-84
2022/04/26 15:51:57;;;;;;;10.10;5.65;;;15.00;91.40;;;;;;4952437;28;20523;-84
2022/04/26 15:54:24;;;;;;;9.57;5.13;;;15.00;91.50;;;;;;4955551;28;20042;-84
2022/04/26 15:56:50;;;;;;;6.35;4.57;;;15.00;91.50;;;;;;4955802;28;20034;-84
2022/04/26 15:59:15;;;;;;;9.10;6.20;;;15.00;91.30;;;;;;4956231;28;20035;-84
2022/04/26 16:01:41;;;;;;;6.82;4.70;;;14.90;91.70;;;;;;4954981;28;20122;-84
2022/04/26 16:04:10;;;;;;;7.57;4.70;;;14.90;91.20;;;;;;4971983;28;20077;-83
2022/04/26 16:06:39;;;;;;;;;;;15.00;91.00;;;;;;4973629;28;20034;-84
2022/04/26 16:22:51;;;;;;;8.80;5.15;;;15.40;91.80;;;;;;4972738;28;20455;-84
2022/04/26 16:25:18;;;;;;;12.00;5.55;;;15.40;91.30;;;;;;4971963;28;20105;-84
2022/04/26 16:27:44;;;;;;;8.73;4.43;;;15.40;91.30;;;;;;4973091;28;20487;-83
2022/04/26 16:30:10;;;;;;;9.15;5.20;;;15.40;91.00;;;;;;4973323;28;20122;-84
2022/04/26 16:32:38;;;;;;;6.97;5.07;;;15.40;91.10;;;;;;4954831;28;20034;-84
2022/04/26 16:35:08;;;;;;;9.57;5.35;;;15.40;90.90;;;;;;4972813;28;20502;-84
2022/04/26 16:37:35;;;;;;;7.90;4.28;;;15.40;91.20;;;;;;4971233;28;20027;-84
2022/04/26 16:40:01;;;;;;;7.90;4.45;;;15.30;91.10;;;;;;4939685;28;20037;-84
2022/04/26 16:42:27;;;;;;;11.52;5.30;;;15.30;90.90;;;;;;4955391;28;20436;-84
2022/04/26 16:44:52;;;;;;;8.40;4.35;;;15.30;90.70;;;;;;4973033;28;20101;-84
2022/04/26 16:47:18;;;;;;;10.02;4.53;;;15.30;90.70;;;;;;4954525;28;20129;-83
2022/04/26 16:49:44;;;;;;;8.90;4.75;;;15.40;90.40;;;;;;4955657;28;20045;-83
2022/04/26 16:52:10;;;;;;;8.65;5.00;;;15.50;90.20;;;;;;4955086;28;20506;-84
2022/04/26 16:54:36;;;;;;;8.80;4.70;;;15.50;90.20;;;;;;4955483;28;20115;-84
2022/04/26 16:57:02;;;;;;;9.02;4.68;;;15.50;90.20;;;;;;4955113;28;20034;-83
2022/04/26 16:59:30;;;;;;;12.27;4.65;;;15.50;90.50;;;;;;4955547;28;20459;-83
2022/04/26 17:01:56;;;;;;;9.43;4.70;;;15.60;88.90;;;;;;4971650;28;20069;-83
2022/04/26 17:04:22;;;;;;;8.63;4.88;;;15.70;88.80;;;;;;4971391;28;20503;-84
2022/04/26 17:06:49;;;;;;;8.60;4.65;;;15.70;88.80;;;;;;4971672;28;20077;-81
2022/04/26 17:09:20;;;;;;;10.10;4.85;;;15.80;88.40;;;;;;4972466;28;20435;-79
2022/04/26 17:11:50;;;;;;;7.88;4.50;;;15.80;88.00;;;;;;4972171;28;20050;-79
2022/04/26 17:14:16;;;;;;;;;;;15.90;87.80;;;;;;4956073;28;20396;-83
2022/04/26 17:16:45;;;;;;;13.18;5.03;;;16.10;91.40;;;;;;4938144;28;19997;-79